Terminal Aerodrome Forecast
Issued by NWS

Home | Current Version | Previous Version | Text Only | Print | Product List | Glossary On
Versions: 1 2 3 4 5 6 7 8 9 10 11 12 13 14 15 16 17 18 19
000
FTUS41 KBGM 201725
TAFRME
TAF
KRME 201725Z 2018/2118 10008KT P6SM -SHRA OVC060 WS020/25030KT
     FM202000 18006KT P6SM BKN040 WS020/24035KT
     FM210000 17006KT P6SM BKN030 WS020/24045KT
     FM211100 18006KT 4SM BR BKN050 WS020/24045KT
     FM211600 20012G20KT P6SM -SHRA OVC030=

USA.gov is the U.S. government's official web portal to all federal, state and local government web resources and services.